createdAt,value
2023-05-15T00:00:40.822Z,0
2023-05-15T00:01:44.128Z,0
2023-05-15T00:02:47.356Z,0
2023-05-15T00:03:50.659Z,0
2023-05-15T00:04:53.972Z,0
2023-05-15T00:05:57.257Z,0
2023-05-15T00:07:00.652Z,0
2023-05-15T00:08:04.265Z,0
2023-05-15T00:09:06.486Z,0
2023-05-15T00:10:09.780Z,0
2023-05-15T00:11:13.101Z,0
2023-05-15T00:12:16.422Z,0
2023-05-15T00:13:19.746Z,0
2023-05-15T00:14:23.066Z,0
2023-05-15T00:15:26.352Z,0
2023-05-15T00:16:29.528Z,0
2023-05-15T00:17:32.897Z,0
2023-05-15T00:18:36.125Z,0
2023-05-15T00:19:39.497Z,0
2023-05-15T00:20:42.690Z,0
2023-05-15T00:21:45.998Z,0
2023-05-15T00:22:48.307Z,0
2023-05-15T00:23:51.598Z,0
2023-05-15T00:24:54.908Z,0
2023-05-15T00:25:58.506Z,0
2023-05-15T00:27:01.719Z,0
2023-05-15T00:28:05.107Z,0
2023-05-15T00:29:08.333Z,0
2023-05-15T00:30:11.609Z,0
2023-05-15T00:31:14.866Z,0
2023-05-15T00:32:18.177Z,0
2023-05-15T00:33:21.426Z,0
2023-05-15T00:34:24.750Z,0
2023-05-15T00:35:28.221Z,0
2023-05-15T00:36:30.430Z,0
2023-05-15T00:37:33.657Z,0
2023-05-15T00:38:36.997Z,0
2023-05-15T00:39:40.259Z,0
2023-05-15T00:40:43.519Z,0
2023-05-15T00:41:46.784Z,0
2023-05-15T00:42:50.090Z,0
2023-05-15T00:43:53.434Z,0
2023-05-15T00:44:56.685Z,0
2023-05-15T00:45:59.937Z,0
2023-05-15T00:47:03.314Z,0
2023-05-15T00:48:06.561Z,0
2023-05-15T00:49:09.833Z,0
2023-05-15T00:50:12.177Z,0
2023-05-15T00:51:15.542Z,0
2023-05-15T00:52:18.795Z,0
2023-05-15T00:53:22.081Z,0
2023-05-15T00:54:25.338Z,0
2023-05-15T00:55:28.752Z,0
2023-05-15T00:56:32.017Z,0
2023-05-15T00:57:35.169Z,0
2023-05-15T00:58:38.471Z,0
2023-05-15T00:59:41.749Z,0
2023-05-15T01:00:45.059Z,0
2023-05-15T01:01:48.344Z,0
2023-05-15T01:02:51.744Z,0
2023-05-15T01:03:53.982Z,0
2023-05-15T01:04:57.237Z,0
2023-05-15T01:06:00.553Z,0
2023-05-15T01:07:03.863Z,0
2023-05-15T01:08:07.160Z,0
2023-05-15T01:09:10.401Z,0
2023-05-15T01:10:12.710Z,0
2023-05-15T01:11:16.004Z,0
2023-05-15T01:12:19.341Z,0
2023-05-15T01:13:22.612Z,0
2023-05-15T01:14:25.882Z,0
2023-05-15T01:15:29.255Z,0
2023-05-15T01:16:32.477Z,0
2023-05-15T01:17:35.756Z,0
2023-05-15T01:18:39.062Z,0
2023-05-15T01:19:42.415Z,0
2023-05-15T01:20:45.648Z,0
2023-05-15T01:21:48.929Z,0
2023-05-15T01:23:55.526Z,0
2023-05-15T01:24:57.841Z,0
2023-05-15T01:26:01.177Z,0
2023-05-15T01:27:04.801Z,0
2023-05-15T01:28:08.100Z,0
2023-05-15T01:29:11.337Z,0
2023-05-15T01:30:14.638Z,0
2023-05-15T01:31:17.953Z,0
2023-05-15T01:32:21.216Z,0
2023-05-15T01:33:24.511Z,0
2023-05-15T01:34:27.865Z,0
2023-05-15T01:35:31.141Z,0
2023-05-15T01:36:34.372Z,0
2023-05-15T01:37:37.672Z,0
2023-05-15T01:38:40.054Z,0
2023-05-15T01:39:43.293Z,0
2023-05-15T01:40:46.631Z,0
2023-05-15T01:41:49.856Z,0
2023-05-15T01:42:53.222Z,0
2023-05-15T01:43:56.457Z,0
2023-05-15T01:44:59.730Z,0
2023-05-15T01:46:03.069Z,0
2023-05-15T01:47:06.315Z,0
2023-05-15T01:48:09.615Z,0
2023-05-15T01:49:12.952Z,0
2023-05-15T01:50:16.190Z,0
2023-05-15T01:51:19.502Z,0
2023-05-15T01:52:21.797Z,0
2023-05-15T01:53:25.083Z,0
2023-05-15T01:54:28.373Z,0
2023-05-15T01:56:34.954Z,0
2023-05-15T01:57:38.254Z,0
2023-05-15T01:58:41.625Z,0
2023-05-15T01:59:44.829Z,0
2023-05-15T02:00:48.180Z,0
2023-05-15T02:01:51.409Z,0
2023-05-15T02:02:54.720Z,0
2023-05-15T02:03:57.998Z,0
2023-05-15T02:05:01.356Z,0
2023-05-15T02:06:05.144Z,0
2023-05-15T02:07:07.321Z,0
2023-05-15T02:08:10.637Z,0
2023-05-15T02:10:17.149Z,0
2023-05-15T02:11:20.442Z,0
2023-05-15T02:12:23.765Z,0
2023-05-15T02:13:27.105Z,0
2023-05-15T02:14:30.323Z,0
2023-05-15T02:15:33.647Z,0
2023-05-15T02:16:36.931Z,0
2023-05-15T02:17:40.208Z,0
2023-05-15T02:18:43.486Z,0
2023-05-15T02:19:46.807Z,0
2023-05-15T02:20:49.110Z,0
2023-05-15T02:21:52.398Z,0
2023-05-15T02:22:55.717Z,0
2023-05-15T02:23:59.104Z,0
2023-05-15T02:25:02.394Z,0
2023-05-15T02:26:05.684Z,0
2023-05-15T02:27:08.981Z,0
2023-05-15T02:28:12.286Z,0
2023-05-15T02:29:15.636Z,0
2023-05-15T02:30:18.898Z,0
2023-05-15T02:31:22.141Z,0
2023-05-15T02:32:25.483Z,0
2023-05-15T02:33:28.936Z,0
2023-05-15T02:34:31.037Z,0
2023-05-15T02:35:34.446Z,0
2023-05-15T02:36:37.667Z,0
2023-05-15T02:37:40.907Z,0
2023-05-15T02:38:44.206Z,0
2023-05-15T02:39:47.486Z,0
2023-05-15T02:40:50.791Z,0
2023-05-15T02:41:54.129Z,0
2023-05-15T02:44:00.677Z,0
2023-05-15T02:45:03.982Z,0
2023-05-15T02:46:07.252Z,0
2023-05-15T02:47:10.614Z,0
2023-05-15T02:48:12.923Z,0
2023-05-15T02:49:16.152Z,0
2023-05-15T02:50:19.443Z,0
2023-05-15T02:51:22.784Z,0
2023-05-15T02:52:26.015Z,0
2023-05-15T02:53:29.309Z,0
2023-05-15T02:54:32.578Z,0
2023-05-15T02:55:35.933Z,0
2023-05-15T02:56:39.231Z,0
2023-05-15T02:57:42.506Z,0
2023-05-15T02:58:45.763Z,-0.01
2023-05-15T02:59:49.049Z,-0.01
2023-05-15T03:00:52.338Z,0
2023-05-15T03:01:54.650Z,0
2023-05-15T03:02:57.970Z,0
2023-05-15T03:05:04.548Z,0
2023-05-15T03:06:07.884Z,0
2023-05-15T03:07:11.172Z,0
2023-05-15T03:08:14.398Z,0
2023-05-15T03:09:17.714Z,0
2023-05-15T03:10:20.995Z,0
2023-05-15T03:11:24.360Z,0
2023-05-15T03:12:27.584Z,0
2023-05-15T03:13:30.907Z,0
2023-05-15T03:14:34.165Z,0
2023-05-15T03:15:36.524Z,0
2023-05-15T03:16:39.766Z,0
2023-05-15T03:17:43.049Z,0
2023-05-15T03:18:46.337Z,0
2023-05-15T03:19:49.644Z,0
2023-05-15T03:20:52.930Z,0
2023-05-15T03:21:56.311Z,0
2023-05-15T03:22:59.511Z,0
2023-05-15T03:24:02.814Z,0
2023-05-15T03:25:06.105Z,0
2023-05-15T03:26:09.486Z,-0.01
2023-05-15T03:27:12.849Z,0
2023-05-15T03:28:15.976Z,0
2023-05-15T03:29:18.297Z,0
2023-05-15T03:30:21.590Z,0
2023-05-15T03:31:24.875Z,0
2023-05-15T03:32:28.218Z,0
2023-05-15T03:33:31.490Z,0
2023-05-15T03:34:34.764Z,0
2023-05-15T03:35:38.052Z,0
2023-05-15T03:36:41.411Z,0
2023-05-15T03:37:44.680Z,0
2023-05-15T03:38:48.013Z,0
2023-05-15T03:39:51.262Z,0
2023-05-15T03:40:54.499Z,0
2023-05-15T03:41:57.792Z,0
2023-05-15T03:43:00.245Z,0
2023-05-15T03:44:03.409Z,0
2023-05-15T03:45:06.684Z,0
2023-05-15T03:46:09.973Z,0
2023-05-15T03:48:16.550Z,0
2023-05-15T03:49:19.967Z,0
2023-05-15T03:50:23.183Z,0
2023-05-15T03:51:26.492Z,0
2023-05-15T03:52:29.803Z,0
2023-05-15T03:53:33.080Z,0
2023-05-15T03:54:36.319Z,0
2023-05-15T03:55:39.840Z,0
2023-05-15T03:56:42.086Z,0
2023-05-15T03:57:45.318Z,0
2023-05-15T03:58:48.654Z,0
2023-05-15T03:59:51.934Z,0
2023-05-15T04:00:55.170Z,0
2023-05-15T04:01:58.478Z,0
2023-05-15T04:03:01.844Z,0
2023-05-15T04:04:05.122Z,0
2023-05-15T04:05:08.376Z,0
2023-05-15T04:06:11.717Z,0
2023-05-15T04:07:15.086Z,0
2023-05-15T04:08:18.135Z,0
2023-05-15T04:09:21.565Z,0
2023-05-15T04:10:23.721Z,0
2023-05-15T04:11:27.175Z,0
2023-05-15T04:12:30.440Z,0
2023-05-15T04:13:33.732Z,0
2023-05-15T04:14:36.886Z,0
2023-05-15T04:15:40.296Z,1
2023-05-15T04:16:43.722Z,1
2023-05-15T04:17:46.909Z,1
2023-05-15T04:18:50.203Z,1
2023-05-15T04:19:53.496Z,1
2023-05-15T04:20:56.769Z,1
2023-05-15T04:21:59.937Z,1
2023-05-15T04:23:03.415Z,1
2023-05-15T04:24:05.707Z,1
2023-05-15T04:25:08.871Z,1
2023-05-15T04:26:12.267Z,1
2023-05-15T04:27:15.416Z,1
2023-05-15T04:28:18.832Z,1
2023-05-15T04:29:22.029Z,1
2023-05-15T04:30:25.436Z,1
2023-05-15T04:31:28.702Z,1
2023-05-15T04:32:32.082Z,0
2023-05-15T04:33:35.348Z,1
2023-05-15T04:34:38.653Z,0
2023-05-15T04:35:41.761Z,0
2023-05-15T04:36:45.034Z,0
2023-05-15T04:37:47.544Z,0
2023-05-15T04:38:50.718Z,0
2023-05-15T04:39:53.935Z,0
2023-05-15T04:40:57.392Z,1
2023-05-15T04:42:00.600Z,1
2023-05-15T04:43:03.068Z,1
2023-05-15T04:44:06.377Z,0
2023-05-15T04:45:09.609Z,0
2023-05-15T04:46:13.055Z,0
2023-05-15T04:47:16.295Z,0
2023-05-15T04:48:19.613Z,0
2023-05-15T04:49:22.911Z,0
2023-05-15T04:50:26.170Z,0
2023-05-15T04:51:29.466Z,0
2023-05-15T04:52:32.723Z,0
2023-05-15T04:53:36.020Z,0
2023-05-15T04:54:39.187Z,0
2023-05-15T04:55:42.586Z,0
2023-05-15T04:56:44.902Z,0
2023-05-15T04:57:48.299Z,0
2023-05-15T04:58:51.482Z,0
2023-05-15T04:59:54.703Z,0
2023-05-15T05:00:57.973Z,-0.01
2023-05-15T05:02:01.359Z,0
2023-05-15T05:03:04.681Z,0
2023-05-15T05:04:07.877Z,0
2023-05-15T05:05:11.181Z,0
2023-05-15T05:06:14.459Z,0
2023-05-15T05:07:17.760Z,0
2023-05-15T05:08:21.063Z,0
2023-05-15T05:09:24.295Z,0
2023-05-15T05:10:26.770Z,0
2023-05-15T05:11:30.046Z,1
2023-05-15T05:12:33.254Z,1
2023-05-15T05:13:36.608Z,0
2023-05-15T05:14:39.845Z,0
2023-05-15T05:15:43.218Z,0
2023-05-15T05:16:46.438Z,1
2023-05-15T05:17:49.731Z,1
2023-05-15T05:18:52.944Z,1
2023-05-15T05:19:56.219Z,1
2023-05-15T05:20:59.534Z,1
2023-05-15T05:22:03.249Z,0
2023-05-15T05:23:06.641Z,1
2023-05-15T05:24:08.912Z,1
2023-05-15T05:25:12.185Z,1
2023-05-15T05:26:15.593Z,1
2023-05-15T05:27:18.718Z,1
2023-05-15T05:28:22.172Z,1
2023-05-15T05:29:25.300Z,0
2023-05-15T05:30:28.752Z,0
2023-05-15T05:31:31.889Z,1
2023-05-15T05:32:35.343Z,0
2023-05-15T05:33:38.487Z,-0.01
2023-05-15T05:34:41.904Z,5
2023-05-15T05:35:45.054Z,5
2023-05-15T05:36:48.457Z,4
2023-05-15T05:37:50.754Z,-0.01
2023-05-15T05:38:53.946Z,5
2023-05-15T05:39:57.395Z,4
2023-05-15T05:41:00.641Z,5
2023-05-15T05:42:03.915Z,4
2023-05-15T05:43:07.179Z,5
2023-05-15T05:44:10.424Z,5
2023-05-15T05:45:13.715Z,5
2023-05-15T05:46:17.158Z,5
2023-05-15T05:47:20.447Z,5
2023-05-15T05:48:23.626Z,5
2023-05-15T05:49:26.886Z,5
2023-05-15T05:50:30.348Z,5
2023-05-15T05:51:32.621Z,5
2023-05-15T05:52:35.923Z,-0.01
2023-05-15T05:53:39.168Z,5
2023-05-15T05:54:42.484Z,5
2023-05-15T05:55:45.650Z,5
2023-05-15T05:56:49.027Z,4
2023-05-15T05:57:52.249Z,4
2023-05-15T05:58:55.579Z,4
2023-05-15T05:59:58.888Z,4
2023-05-15T06:01:02.189Z,5
2023-05-15T06:02:05.407Z,4
2023-05-15T06:03:08.755Z,5
2023-05-15T06:04:12.045Z,5
2023-05-15T06:05:14.418Z,4
2023-05-15T06:06:17.571Z,5
2023-05-15T06:07:20.920Z,5
2023-05-15T06:08:24.353Z,5
2023-05-15T06:09:27.440Z,5
2023-05-15T06:10:30.854Z,5
2023-05-15T06:11:34.128Z,4
2023-05-15T06:12:37.505Z,4
2023-05-15T06:13:40.743Z,5
2023-05-15T06:14:43.955Z,5
2023-05-15T06:15:47.243Z,5
2023-05-15T06:16:50.634Z,5
2023-05-15T06:17:53.923Z,4
2023-05-15T06:18:56.277Z,5
2023-05-15T06:19:59.503Z,5
2023-05-15T06:21:02.720Z,5
2023-05-15T06:22:06.012Z,5
2023-05-15T06:23:09.342Z,5
2023-05-15T06:24:12.548Z,5
2023-05-15T06:25:15.878Z,5
2023-05-15T06:26:19.248Z,4
2023-05-15T06:27:22.433Z,5
2023-05-15T06:28:25.778Z,5
2023-05-15T06:29:29.035Z,4
2023-05-15T06:30:32.365Z,5
2023-05-15T06:31:35.733Z,5
2023-05-15T06:32:38.050Z,5
2023-05-15T06:33:41.388Z,5
2023-05-15T06:34:44.715Z,5
2023-05-15T06:35:47.846Z,5
2023-05-15T06:36:51.124Z,5
2023-05-15T06:37:54.442Z,5
2023-05-15T06:38:57.802Z,5
2023-05-15T06:40:00.977Z,5
2023-05-15T06:41:04.291Z,5
2023-05-15T06:42:07.558Z,5
2023-05-15T06:43:10.999Z,5
2023-05-15T06:44:14.293Z,5
2023-05-15T06:45:17.529Z,4
2023-05-15T06:46:19.729Z,5
2023-05-15T06:47:23.192Z,5
2023-05-15T06:48:26.478Z,5
2023-05-15T06:49:29.739Z,5
2023-05-15T06:50:33.062Z,5
2023-05-15T06:51:36.341Z,5
2023-05-15T06:52:39.476Z,5
2023-05-15T06:53:42.934Z,5
2023-05-15T06:54:46.216Z,5
2023-05-15T06:55:49.465Z,5
2023-05-15T06:56:52.764Z,5
2023-05-15T06:57:56.104Z,6
2023-05-15T06:58:59.380Z,6
2023-05-15T07:00:01.677Z,5
2023-05-15T07:01:04.979Z,5
2023-05-15T07:02:08.324Z,5
2023-05-15T07:03:11.410Z,5
2023-05-15T07:04:14.867Z,5
2023-05-15T07:05:17.990Z,5
2023-05-15T07:06:21.268Z,5
2023-05-15T07:07:24.691Z,6
2023-05-15T07:08:27.926Z,5
2023-05-15T07:09:31.325Z,6
2023-05-15T07:10:34.648Z,6
2023-05-15T07:11:37.753Z,5
2023-05-15T07:12:41.216Z,4
2023-05-15T07:13:43.469Z,5
2023-05-15T07:14:46.798Z,5
2023-05-15T07:15:49.942Z,6
2023-05-15T07:16:53.314Z,5
2023-05-15T07:17:56.552Z,4
2023-05-15T07:18:59.950Z,5
2023-05-15T07:20:03.160Z,5
2023-05-15T07:21:06.536Z,5
2023-05-15T07:22:09.738Z,5
2023-05-15T07:23:12.989Z,4
2023-05-15T07:24:16.316Z,5
2023-05-15T07:25:19.659Z,5
2023-05-15T07:26:22.964Z,4
2023-05-15T07:27:25.270Z,4
2023-05-15T07:28:28.559Z,5
2023-05-15T07:29:31.864Z,5
2023-05-15T07:30:35.166Z,5
2023-05-15T07:31:38.311Z,5
2023-05-15T07:32:41.748Z,5
2023-05-15T07:33:44.954Z,4
2023-05-15T07:34:48.281Z,4
2023-05-15T07:35:51.473Z,4
2023-05-15T07:36:54.780Z,4
2023-05-15T07:37:58.194Z,4
2023-05-15T07:39:01.455Z,5
2023-05-15T07:40:04.646Z,5
2023-05-15T07:41:07.125Z,5
2023-05-15T07:42:10.355Z,5
2023-05-15T07:43:13.564Z,5
2023-05-15T07:44:16.857Z,5
2023-05-15T07:45:20.109Z,4
2023-05-15T07:46:23.408Z,4
2023-05-15T07:47:26.797Z,5
2023-05-15T07:48:29.999Z,4
2023-05-15T07:49:33.516Z,4
2023-05-15T07:50:36.637Z,4
2023-05-15T07:51:39.938Z,5
2023-05-15T07:53:46.515Z,5
2023-05-15T07:54:48.893Z,4
2023-05-15T07:55:52.163Z,4
2023-05-15T07:56:55.503Z,5
2023-05-15T07:57:58.776Z,5
2023-05-15T07:59:01.937Z,5
2023-05-15T08:00:05.400Z,5
2023-05-15T08:01:08.587Z,5
2023-05-15T08:02:11.832Z,4
2023-05-15T08:03:15.168Z,5
2023-05-15T08:04:18.463Z,5
2023-05-15T08:05:21.763Z,6
2023-05-15T08:06:25.000Z,5
2023-05-15T08:07:28.274Z,5
2023-05-15T08:08:30.673Z,5
2023-05-15T08:09:33.932Z,5
2023-05-15T08:10:37.263Z,5
2023-05-15T08:11:40.611Z,5
2023-05-15T08:12:43.748Z,5
2023-05-15T08:13:47.134Z,6
2023-05-15T08:14:49.446Z,6
2023-05-15T08:15:52.691Z,5
2023-05-15T08:16:55.951Z,6
2023-05-15T08:17:59.224Z,5
2023-05-15T08:19:02.545Z,5
2023-05-15T08:20:05.800Z,5
2023-05-15T08:21:09.170Z,4
2023-05-15T08:22:12.418Z,5
2023-05-15T08:23:15.697Z,5
2023-05-15T08:24:19.008Z,5
2023-05-15T08:25:22.360Z,4
2023-05-15T08:26:25.668Z,4
2023-05-15T08:27:28.873Z,5
2023-05-15T08:28:31.213Z,5
2023-05-15T08:29:34.457Z,4
2023-05-15T08:30:37.744Z,5
2023-05-15T08:31:41.042Z,4
2023-05-15T08:32:44.329Z,4
2023-05-15T08:33:47.621Z,4
2023-05-15T08:34:50.937Z,4
2023-05-15T08:35:54.268Z,5
2023-05-15T08:36:57.501Z,5
2023-05-15T08:38:00.874Z,-0.01
2023-05-15T08:39:04.409Z,5
2023-05-15T08:40:07.691Z,4
2023-05-15T08:41:11.009Z,5
2023-05-15T08:42:13.289Z,5
2023-05-15T08:43:16.707Z,4
2023-05-15T08:44:19.864Z,4
2023-05-15T08:45:23.245Z,5
2023-05-15T08:46:26.484Z,5
2023-05-15T08:47:29.836Z,5
2023-05-15T08:48:33.038Z,5
2023-05-15T08:49:36.361Z,4
2023-05-15T08:50:39.613Z,5
2023-05-15T08:51:42.939Z,5
2023-05-15T08:52:46.255Z,5
2023-05-15T08:53:49.592Z,5
2023-05-15T08:54:52.812Z,5
2023-05-15T08:55:55.176Z,5
2023-05-15T08:56:58.381Z,5
2023-05-15T08:58:01.686Z,5
2023-05-15T08:59:04.985Z,5
2023-05-15T09:00:08.266Z,5
2023-05-15T09:01:11.576Z,5
2023-05-15T09:02:14.970Z,5
2023-05-15T09:03:18.314Z,5
2023-05-15T09:04:21.426Z,5
2023-05-15T09:05:24.744Z,5
2023-05-15T09:06:28.271Z,5
2023-05-15T09:07:31.441Z,5
2023-05-15T09:08:34.626Z,6
2023-05-15T09:09:36.957Z,5
2023-05-15T09:10:40.213Z,6
2023-05-15T09:11:43.596Z,5
2023-05-15T09:12:46.799Z,4
2023-05-15T09:13:50.085Z,5
2023-05-15T09:14:53.462Z,4
2023-05-15T09:15:56.844Z,4
2023-05-15T09:17:00.144Z,5
2023-05-15T09:18:03.463Z,5
2023-05-15T09:19:06.600Z,5
2023-05-15T09:20:09.834Z,5
2023-05-15T09:21:13.125Z,5
2023-05-15T09:22:16.431Z,5
2023-05-15T09:23:18.754Z,5
2023-05-15T09:24:22.058Z,5
2023-05-15T09:25:25.310Z,5
2023-05-15T09:26:28.720Z,5
2023-05-15T09:27:31.896Z,5
2023-05-15T09:28:35.246Z,5
2023-05-15T09:29:38.524Z,5
2023-05-15T09:30:41.872Z,5
2023-05-15T09:31:45.062Z,5
2023-05-15T09:32:48.352Z,5
2023-05-15T09:33:51.691Z,5
2023-05-15T09:34:54.996Z,5
2023-05-15T09:35:58.230Z,5
2023-05-15T09:37:00.585Z,5
2023-05-15T09:38:03.903Z,5
2023-05-15T09:39:07.130Z,4
2023-05-15T09:40:10.616Z,4
2023-05-15T09:41:13.876Z,5
2023-05-15T09:42:17.148Z,5
2023-05-15T09:43:20.492Z,5
2023-05-15T09:44:23.614Z,5
2023-05-15T09:45:27.079Z,5
2023-05-15T09:46:30.321Z,5
2023-05-15T09:47:33.616Z,5
2023-05-15T09:48:36.735Z,5
2023-05-15T09:49:40.098Z,5
2023-05-15T09:50:43.575Z,4
2023-05-15T09:51:46.828Z,5
2023-05-15T09:52:50.181Z,5
2023-05-15T09:53:53.334Z,5
2023-05-15T09:54:56.768Z,5
2023-05-15T09:56:00.100Z,5
2023-05-15T09:57:03.246Z,5
2023-05-15T09:59:09.802Z,5
2023-05-15T10:00:13.077Z,5
2023-05-15T10:01:16.444Z,5
2023-05-15T10:02:19.691Z,5
2023-05-15T10:03:23.033Z,4
2023-05-15T10:04:25.266Z,4
2023-05-15T10:05:28.559Z,4
2023-05-15T10:06:31.907Z,4
2023-05-15T10:07:35.197Z,4
2023-05-15T10:08:38.455Z,5
2023-05-15T10:09:41.749Z,5
2023-05-15T10:10:45.037Z,5
2023-05-15T10:11:48.309Z,5
2023-05-15T10:12:51.599Z,5
2023-05-15T10:13:55.019Z,5
2023-05-15T10:14:58.204Z,5
2023-05-15T10:16:01.534Z,5
2023-05-15T10:17:05.071Z,5
2023-05-15T10:18:07.385Z,5
2023-05-15T10:19:10.664Z,4
2023-05-15T10:20:13.962Z,5
2023-05-15T10:21:17.289Z,5
2023-05-15T10:22:20.540Z,5
2023-05-15T10:23:23.832Z,4
2023-05-15T10:24:27.204Z,5
2023-05-15T10:25:30.430Z,5
2023-05-15T10:26:33.706Z,5
2023-05-15T10:27:37.001Z,5
2023-05-15T10:28:40.289Z,5
2023-05-15T10:29:43.590Z,5
2023-05-15T10:30:46.917Z,5
2023-05-15T10:31:49.176Z,5
2023-05-15T10:32:52.490Z,5
2023-05-15T10:33:55.767Z,5
2023-05-15T10:34:59.138Z,5
2023-05-15T10:36:02.402Z,5
2023-05-15T10:37:05.715Z,5
2023-05-15T10:38:08.932Z,5
2023-05-15T10:39:12.286Z,5
2023-05-15T10:40:15.523Z,5
2023-05-15T10:41:18.816Z,5
2023-05-15T10:42:22.105Z,5
2023-05-15T10:43:25.381Z,6
2023-05-15T10:44:28.682Z,5
2023-05-15T10:45:31.035Z,5
2023-05-15T10:46:34.277Z,5
2023-05-15T10:47:37.615Z,5
2023-05-15T10:48:40.878Z,5
2023-05-15T10:49:44.168Z,5
2023-05-15T10:50:47.466Z,5
2023-05-15T10:51:50.798Z,5
2023-05-15T10:52:54.076Z,5
2023-05-15T10:53:57.354Z,5
2023-05-15T10:55:00.622Z,5
2023-05-15T10:56:03.916Z,6
2023-05-15T10:57:07.212Z,5
2023-05-15T10:58:10.506Z,6
2023-05-15T10:59:12.812Z,6
2023-05-15T11:00:16.096Z,6
2023-05-15T11:01:19.394Z,6
2023-05-15T11:02:22.677Z,5
2023-05-15T11:03:26.007Z,5
2023-05-15T11:04:29.338Z,5
2023-05-15T11:05:32.714Z,5
2023-05-15T11:06:35.949Z,6
2023-05-15T11:07:39.126Z,6
2023-05-15T11:08:42.637Z,6
2023-05-15T11:09:45.865Z,6
2023-05-15T11:10:49.194Z,6
2023-05-15T11:11:52.543Z,6
2023-05-15T11:12:54.725Z,7
2023-05-15T11:13:58.051Z,6
2023-05-15T11:15:01.319Z,5
2023-05-15T11:16:04.674Z,4
2023-05-15T11:17:07.784Z,6
2023-05-15T11:18:11.073Z,6
2023-05-15T11:19:14.364Z,6
2023-05-15T11:20:17.774Z,6
2023-05-15T11:21:21.067Z,6
2023-05-15T11:22:24.377Z,5
2023-05-15T11:23:27.537Z,6
2023-05-15T11:24:30.880Z,6
2023-05-15T11:25:34.132Z,6
2023-05-15T11:26:36.617Z,6
2023-05-15T11:27:39.734Z,6
2023-05-15T11:28:43.019Z,6
2023-05-15T11:29:46.382Z,6
2023-05-15T11:30:49.765Z,6
2023-05-15T11:31:52.885Z,5
2023-05-15T11:32:56.313Z,5
2023-05-15T11:33:59.642Z,6
2023-05-15T11:35:02.843Z,6
2023-05-15T11:36:06.185Z,6
2023-05-15T11:37:09.453Z,7
2023-05-15T11:38:12.755Z,6
2023-05-15T11:39:16.090Z,7
2023-05-15T11:40:18.230Z,7
2023-05-15T11:41:21.819Z,6
2023-05-15T11:43:28.245Z,6
2023-05-15T11:44:31.409Z,7
2023-05-15T11:45:34.699Z,7
2023-05-15T11:46:37.157Z,7
2023-05-15T11:47:40.334Z,9
2023-05-15T11:48:43.630Z,8
2023-05-15T11:49:46.915Z,10
2023-05-15T11:50:50.326Z,7
2023-05-15T11:51:53.574Z,8
2023-05-15T11:52:56.782Z,7
2023-05-15T11:54:00.211Z,7
2023-05-15T11:55:03.419Z,10
2023-05-15T11:56:06.784Z,10
2023-05-15T11:57:09.938Z,8
2023-05-15T11:58:13.230Z,10
2023-05-15T11:59:16.583Z,9
2023-05-15T12:00:18.854Z,9
2023-05-15T12:01:22.193Z,9
2023-05-15T12:02:25.438Z,9
2023-05-15T12:03:28.700Z,8
2023-05-15T12:04:32.009Z,8
2023-05-15T12:05:35.407Z,8
2023-05-15T12:06:38.595Z,9
2023-05-15T12:07:41.876Z,8
2023-05-15T12:08:45.171Z,8
2023-05-15T12:09:48.444Z,9
2023-05-15T12:10:51.744Z,9
2023-05-15T12:11:55.031Z,8
2023-05-15T12:12:58.362Z,8
2023-05-15T12:14:00.809Z,8
2023-05-15T12:15:03.940Z,8
2023-05-15T12:16:07.277Z,8
2023-05-15T12:17:10.511Z,7
2023-05-15T12:18:13.826Z,7
2023-05-15T12:19:17.091Z,9
2023-05-15T12:20:20.397Z,9
2023-05-15T12:21:23.721Z,9
2023-05-15T12:22:26.992Z,9
2023-05-15T12:23:30.362Z,8
2023-05-15T12:24:33.579Z,10
2023-05-15T12:25:36.872Z,8
2023-05-15T12:26:40.152Z,8
2023-05-15T12:27:42.461Z,8
2023-05-15T12:28:45.751Z,8
2023-05-15T12:29:49.102Z,7
2023-05-15T12:30:52.450Z,8
2023-05-15T12:31:55.627Z,9
2023-05-15T12:32:58.901Z,11
2023-05-15T12:34:02.202Z,11
2023-05-15T12:35:05.504Z,11
2023-05-15T12:36:09.071Z,7
2023-05-15T12:37:12.526Z,10
2023-05-15T12:38:15.641Z,9
2023-05-15T12:39:18.938Z,9
2023-05-15T12:40:22.219Z,9
2023-05-15T12:41:24.532Z,9
2023-05-15T12:42:27.859Z,9
2023-05-15T12:43:31.143Z,10
2023-05-15T12:44:34.396Z,10
2023-05-15T12:45:37.707Z,13
2023-05-15T12:46:41.003Z,12
2023-05-15T12:47:44.284Z,11
2023-05-15T12:48:47.656Z,11
2023-05-15T12:49:50.861Z,10
2023-05-15T12:50:54.180Z,12
2023-05-15T12:53:00.782Z,13
2023-05-15T12:54:04.041Z,9
2023-05-15T12:55:06.357Z,11
2023-05-15T12:56:09.677Z,8
2023-05-15T12:57:12.923Z,9
2023-05-15T12:58:16.264Z,9
2023-05-15T12:59:19.528Z,10
2023-05-15T13:00:22.847Z,7
2023-05-15T13:01:26.206Z,6
2023-05-15T13:02:29.384Z,7
2023-05-15T13:03:32.737Z,7
2023-05-15T13:04:35.956Z,8
2023-05-15T13:05:39.262Z,9
2023-05-15T13:06:42.566Z,9
2023-05-15T13:07:45.913Z,10
2023-05-15T13:08:48.328Z,8
2023-05-15T13:09:51.440Z,13
2023-05-15T13:10:54.890Z,11
2023-05-15T13:11:58.200Z,11
2023-05-15T13:13:01.464Z,12
2023-05-15T13:14:04.655Z,12
2023-05-15T13:15:07.904Z,7
2023-05-15T13:16:11.254Z,7
2023-05-15T13:17:14.609Z,9
2023-05-15T13:18:17.813Z,7
2023-05-15T13:19:21.214Z,11
2023-05-15T13:20:24.418Z,14
2023-05-15T13:21:27.763Z,7
2023-05-15T13:22:29.965Z,7
2023-05-15T13:23:33.447Z,7
2023-05-15T13:24:36.554Z,6
2023-05-15T13:25:39.842Z,6
2023-05-15T13:26:43.117Z,8
2023-05-15T13:27:46.529Z,6
2023-05-15T13:28:49.821Z,6
2023-05-15T13:29:53.063Z,6
2023-05-15T13:30:56.471Z,6
2023-05-15T13:31:59.584Z,5
2023-05-15T13:33:03.324Z,6
2023-05-15T13:34:06.736Z,5
2023-05-15T13:35:09.944Z,5
2023-05-15T13:36:12.210Z,5
2023-05-15T13:37:15.537Z,5
2023-05-15T13:38:18.838Z,5
2023-05-15T13:39:22.165Z,5
2023-05-15T13:40:25.409Z,5
2023-05-15T13:41:28.640Z,5
2023-05-15T13:42:31.938Z,5
2023-05-15T13:43:35.246Z,5
2023-05-15T13:44:38.547Z,5
2023-05-15T13:45:42.018Z,5
2023-05-15T13:46:45.108Z,5
2023-05-15T13:47:48.465Z,5
2023-05-15T13:48:51.815Z,5
2023-05-15T13:49:54.070Z,5
2023-05-15T13:50:57.378Z,5
2023-05-15T13:52:00.620Z,5
2023-05-15T13:53:04.004Z,5
2023-05-15T13:54:07.185Z,5
2023-05-15T13:55:10.469Z,6
2023-05-15T13:56:13.769Z,6
2023-05-15T13:57:17.037Z,6
2023-05-15T13:58:20.510Z,6
2023-05-15T13:59:23.660Z,5
2023-05-15T14:00:26.916Z,6
2023-05-15T14:01:30.256Z,5
2023-05-15T14:02:33.518Z,5
2023-05-15T14:03:35.827Z,5
2023-05-15T14:04:39.116Z,5
2023-05-15T14:05:42.407Z,5
2023-05-15T14:06:45.711Z,5
2023-05-15T14:07:48.975Z,5
2023-05-15T14:08:52.274Z,5
2023-05-15T14:09:55.569Z,5
2023-05-15T14:10:58.898Z,5
2023-05-15T14:12:02.168Z,5
2023-05-15T14:13:05.456Z,6
2023-05-15T14:14:08.742Z,5
2023-05-15T14:15:12.063Z,5
2023-05-15T14:16:15.314Z,5
2023-05-15T14:17:17.622Z,5
2023-05-15T14:18:20.927Z,6
2023-05-15T14:19:24.208Z,6
2023-05-15T14:20:27.505Z,6
2023-05-15T14:21:30.809Z,5
2023-05-15T14:22:34.082Z,5
2023-05-15T14:23:37.398Z,5
2023-05-15T14:24:40.684Z,5
2023-05-15T14:25:43.960Z,5
2023-05-15T14:26:47.244Z,5
2023-05-15T14:27:50.598Z,5
2023-05-15T14:28:53.847Z,6
2023-05-15T14:29:57.147Z,5
2023-05-15T14:30:59.443Z,6
2023-05-15T14:32:02.754Z,5
2023-05-15T14:33:06.029Z,5
2023-05-15T14:34:09.796Z,5
2023-05-15T14:35:13.093Z,5
2023-05-15T14:36:16.391Z,6
2023-05-15T14:37:19.610Z,6
2023-05-15T14:38:22.914Z,5
2023-05-15T14:39:26.200Z,5
2023-05-15T14:40:29.489Z,5
2023-05-15T14:41:32.800Z,5
2023-05-15T14:42:36.102Z,5
2023-05-15T14:43:39.379Z,5
2023-05-15T14:44:41.694Z,5
2023-05-15T14:45:44.970Z,5
2023-05-15T14:46:48.276Z,5
2023-05-15T14:47:51.557Z,5
2023-05-15T14:48:54.843Z,5
2023-05-15T14:49:58.150Z,4
2023-05-15T14:51:01.442Z,5
2023-05-15T14:52:04.739Z,6
2023-05-15T14:53:08.004Z,5
2023-05-15T14:54:11.317Z,6
2023-05-15T14:55:14.614Z,5
2023-05-15T14:56:17.898Z,5
2023-05-15T14:57:21.178Z,6
2023-05-15T14:58:23.495Z,6
2023-05-15T14:59:26.787Z,7
2023-05-15T15:00:30.074Z,7
2023-05-15T15:01:33.376Z,7
2023-05-15T15:02:36.660Z,6
2023-05-15T15:03:39.949Z,6
2023-05-15T15:04:43.242Z,6
2023-05-15T15:05:46.521Z,6
2023-05-15T15:06:49.836Z,6
2023-05-15T15:07:53.127Z,6
2023-05-15T15:08:56.420Z,7
2023-05-15T15:09:59.704Z,7
2023-05-15T15:11:03.012Z,7
2023-05-15T15:12:05.296Z,7
2023-05-15T15:13:08.625Z,7
2023-05-15T15:14:11.878Z,12
2023-05-15T15:16:18.470Z,8
2023-05-15T15:17:21.764Z,7
2023-05-15T15:18:24.084Z,6
2023-05-15T15:19:27.357Z,7
2023-05-15T15:20:30.702Z,11
2023-05-15T15:21:33.946Z,6
2023-05-15T15:22:37.248Z,7
2023-05-15T15:23:40.558Z,11
2023-05-15T15:24:43.819Z,14
2023-05-15T15:25:47.119Z,9
2023-05-15T15:26:50.416Z,6
2023-05-15T15:27:53.690Z,6
2023-05-15T15:28:56.993Z,6
2023-05-15T15:30:00.309Z,6
2023-05-15T15:31:03.588Z,1
2023-05-15T15:32:05.878Z,6
2023-05-15T15:33:09.173Z,1
2023-05-15T15:34:12.470Z,1
2023-05-15T15:35:15.766Z,1
2023-05-15T15:36:19.300Z,1
2023-05-15T15:37:22.345Z,2
2023-05-15T15:38:25.714Z,2
2023-05-15T15:39:29.059Z,1
2023-05-15T15:40:32.402Z,2
2023-05-15T15:41:35.588Z,2
2023-05-15T15:42:38.867Z,2
2023-05-15T15:43:42.098Z,3